Columbus (CMH/KCMH)

Map

Destinations

Information

Location
Columbus, OH
Local Time
21:37 / 9:37 pm
GMT Time
02:37 / 2:37 am
Gates
Unassigned
No FAA reported delays
METAR KCMH 170151Z 09004KT 6SM -RA BR SCT045 BKN065 OVC090 07/07 A3016 RMK AO2 RAB40 SLP218 P0000 T00720072 $
TAF KCMH 170133Z 1702/1724 12005KT 4SM -SHRA OVC050 TEMPO 1702/1704 1SM -SHRA BR OVC012 FM170400 15007KT 5SM BR VCSH OVC050 FM170700 16008KT 2SM -SHRA BR OVC005 FM171600 23014KT P6SM OVC012 FM171900 25014G22KT P6SM OVC025
  • No charts available